createdAt,value
2018-12-07T00:02:12.678Z,11.90
2018-12-07T00:04:40.046Z,11.90
2018-12-07T00:07:07.211Z,11.90
2018-12-07T00:09:34.452Z,11.90
2018-12-07T00:12:01.673Z,11.90
2018-12-07T00:14:28.962Z,11.90
2018-12-07T00:16:56.180Z,11.90
2018-12-07T00:19:23.454Z,11.80
2018-12-07T00:21:50.639Z,11.80
2018-12-07T00:24:18.034Z,11.70
2018-12-07T00:26:45.204Z,11.70
2018-12-07T00:29:12.493Z,11.70
2018-12-07T00:31:39.824Z,11.70
2018-12-07T00:34:07.081Z,11.70
2018-12-07T00:36:34.283Z,11.60
2018-12-07T00:39:01.632Z,11.60
2018-12-07T00:41:28.794Z,11.60
2018-12-07T00:43:56.137Z,11.60
2018-12-07T00:46:23.358Z,11.60
2018-12-07T00:48:50.644Z,11.60
2018-12-07T00:51:17.836Z,11.50
2018-12-07T00:53:45.128Z,11.50
2018-12-07T00:56:12.351Z,11.50
2018-12-07T00:58:49.496Z,11.50
2018-12-07T01:01:16.733Z,11.50
2018-12-07T01:03:44.975Z,11.50
2018-12-07T01:06:12.193Z,11.50
2018-12-07T01:08:42.736Z,11.50
2018-12-07T01:11:09.996Z,11.50
2018-12-07T01:13:37.263Z,11.50
2018-12-07T01:16:04.432Z,11.50
2018-12-07T01:18:31.831Z,11.60
2018-12-07T01:20:59.039Z,11.60
2018-12-07T01:23:26.244Z,11.60
2018-12-07T01:25:53.437Z,11.60
2018-12-07T01:28:20.672Z,11.60
2018-12-07T01:30:47.850Z,11.60
2018-12-07T01:33:15.308Z,11.60
2018-12-07T01:35:42.506Z,11.60
2018-12-07T01:38:09.787Z,11.60
2018-12-07T01:40:36.982Z,11.50
2018-12-07T01:43:04.257Z,11.50
2018-12-07T01:45:31.474Z,11.50
2018-12-07T01:47:58.677Z,11.50
2018-12-07T01:50:25.971Z,11.50
2018-12-07T01:52:53.193Z,11.50
2018-12-07T01:55:20.432Z,11.50
2018-12-07T01:57:47.606Z,11.50
2018-12-07T02:00:14.853Z,11.50
2018-12-07T02:02:42.073Z,11.50
2018-12-07T02:05:09.331Z,11.50
2018-12-07T02:07:36.590Z,11.50
2018-12-07T02:10:04.329Z,11.50
2018-12-07T02:12:31.518Z,11.50
2018-12-07T02:15:01.962Z,11.50
2018-12-07T02:17:29.143Z,11.50
2018-12-07T02:19:56.465Z,11.40
2018-12-07T02:22:23.663Z,11.40
2018-12-07T02:24:50.967Z,11.40
2018-12-07T02:27:18.193Z,11.40
2018-12-07T02:29:45.420Z,11.40
2018-12-07T02:32:12.641Z,11.40
2018-12-07T02:34:39.975Z,11.40
2018-12-07T02:37:07.162Z,11.40
2018-12-07T02:39:34.505Z,11.40
2018-12-07T02:42:01.696Z,11.40
2018-12-07T02:44:28.969Z,11.40
2018-12-07T02:46:56.161Z,11.30
2018-12-07T02:49:23.441Z,11.30
2018-12-07T02:51:50.651Z,11.30
2018-12-07T02:54:21.145Z,11.30
2018-12-07T02:56:48.368Z,11.30
2018-12-07T02:59:15.793Z,11.30
2018-12-07T03:01:42.986Z,11.40
2018-12-07T03:04:10.248Z,11.40
2018-12-07T03:06:37.462Z,11.40
2018-12-07T03:09:08.148Z,11.40
2018-12-07T03:11:35.358Z,11.40
2018-12-07T03:14:02.651Z,11.40
2018-12-07T03:16:29.984Z,11.40
2018-12-07T03:18:57.248Z,11.40
2018-12-07T03:21:24.434Z,11.40
2018-12-07T03:23:52.674Z,11.40
2018-12-07T03:26:19.895Z,11.50
2018-12-07T03:28:47.157Z,11.40
2018-12-07T03:31:14.350Z,11.40
2018-12-07T03:33:45.390Z,11.40
2018-12-07T03:36:12.565Z,11.40
2018-12-07T03:38:39.771Z,11.40
2018-12-07T03:41:07.056Z,11.40
2018-12-07T03:43:37.415Z,11.40
2018-12-07T03:46:04.632Z,11.40
2018-12-07T03:48:31.801Z,11.40
2018-12-07T03:50:59.019Z,11.40
2018-12-07T03:53:26.209Z,11.40
2018-12-07T03:55:53.483Z,11.40
2018-12-07T03:58:20.681Z,11.40
2018-12-07T04:00:47.909Z,11.40
2018-12-07T04:03:15.324Z,11.40
2018-12-07T04:05:48.908Z,11.40
2018-12-07T04:08:16.318Z,11.40
2018-12-07T04:10:43.761Z,11.40
2018-12-07T04:13:10.936Z,11.40
2018-12-07T04:15:38.191Z,11.40
2018-12-07T04:18:05.518Z,11.40
2018-12-07T04:20:32.788Z,11.50
2018-12-07T04:22:59.989Z,11.50
2018-12-07T04:25:27.318Z,11.40
2018-12-07T04:27:54.545Z,11.40
2018-12-07T04:30:22.694Z,11.40
2018-12-07T04:32:49.908Z,11.40
2018-12-07T04:35:17.100Z,11.50
2018-12-07T04:37:44.330Z,11.40
2018-12-07T04:40:11.621Z,11.40
2018-12-07T04:42:38.836Z,11.40
2018-12-07T04:45:06.205Z,11.40
2018-12-07T04:47:35.413Z,11.40
2018-12-07T04:50:02.620Z,11.40
2018-12-07T04:52:29.823Z,11.40
2018-12-07T04:54:57.025Z,11.50
2018-12-07T04:57:26.263Z,11.50
2018-12-07T04:59:53.463Z,11.50
2018-12-07T05:02:20.671Z,11.40
2018-12-07T05:04:47.932Z,11.40
2018-12-07T05:07:16.192Z,11.40
2018-12-07T05:09:43.395Z,11.40
2018-12-07T05:12:10.610Z,11.30
2018-12-07T05:14:37.828Z,11.30
2018-12-07T05:17:05.123Z,11.30
2018-12-07T05:19:32.359Z,11.40
2018-12-07T05:21:59.605Z,11.30
2018-12-07T05:24:26.804Z,11.30
2018-12-07T05:26:54.024Z,11.30
2018-12-07T05:29:21.205Z,11.30
2018-12-07T05:31:48.445Z,11.30
2018-12-07T05:34:15.622Z,11.30
2018-12-07T05:36:44.891Z,11.30
2018-12-07T05:39:12.115Z,11.40
2018-12-07T05:41:39.334Z,11.30
2018-12-07T05:44:06.655Z,11.30
2018-12-07T05:46:34.894Z,11.30
2018-12-07T05:49:02.159Z,11.30
2018-12-07T05:51:29.355Z,11.30
2018-12-07T05:53:58.634Z,11.40
2018-12-07T05:56:25.801Z,11.30
2018-12-07T05:58:53.039Z,11.30
2018-12-07T06:01:20.234Z,11.30
2018-12-07T06:03:47.537Z,11.30
2018-12-07T06:06:14.711Z,11.20
2018-12-07T06:08:41.913Z,11.30
2018-12-07T06:11:09.159Z,11.30
2018-12-07T06:13:36.387Z,11.30
2018-12-07T06:16:03.766Z,11.30
2018-12-07T06:18:30.965Z,11.30
2018-12-07T06:20:58.274Z,11.30
2018-12-07T06:23:25.586Z,11.30
2018-12-07T06:25:54.839Z,11.30
2018-12-07T06:28:22.084Z,11.30
2018-12-07T06:30:49.305Z,11.30
2018-12-07T06:33:16.502Z,11.20
2018-12-07T06:35:45.786Z,11.30
2018-12-07T06:38:13.017Z,11.30
2018-12-07T06:40:40.314Z,11.30
2018-12-07T06:43:07.524Z,11.30
2018-12-07T06:45:35.309Z,11.40
2018-12-07T06:48:02.802Z,11.30
2018-12-07T06:50:30.004Z,11.30
2018-12-07T06:52:57.249Z,11.40
2018-12-07T06:55:24.463Z,11.30
2018-12-07T06:57:52.705Z,11.30
2018-12-07T07:00:19.909Z,11.30
2018-12-07T07:02:48.110Z,11.30
2018-12-07T07:05:15.337Z,11.30
2018-12-07T07:07:43.533Z,11.40
2018-12-07T07:10:10.761Z,11.40
2018-12-07T07:12:37.953Z,11.40
2018-12-07T07:15:05.301Z,11.40
2018-12-07T07:17:33.677Z,11.40
2018-12-07T07:20:00.884Z,11.40
2018-12-07T07:22:28.189Z,11.40
2018-12-07T07:24:55.385Z,11.40
2018-12-07T07:27:22.622Z,11.40
2018-12-07T07:29:49.800Z,11.30
2018-12-07T07:32:20.758Z,11.30
2018-12-07T07:34:48.533Z,11.30
2018-12-07T07:37:21.021Z,11.30
2018-12-07T07:39:48.202Z,11.30
2018-12-07T07:42:17.563Z,11.30
2018-12-07T07:44:44.757Z,11.30
2018-12-07T07:47:12.995Z,11.30
2018-12-07T07:49:40.221Z,11.30
2018-12-07T07:52:07.422Z,11.30
2018-12-07T07:54:34.666Z,11.30
2018-12-07T07:57:02.025Z,11.30
2018-12-07T07:59:35.538Z,11.30
2018-12-07T08:02:02.896Z,11.30
2018-12-07T08:04:30.178Z,11.30
2018-12-07T08:06:57.344Z,11.30
2018-12-07T08:09:24.701Z,11.30
2018-12-07T08:11:51.920Z,11.30
2018-12-07T08:14:19.220Z,11.30
2018-12-07T08:16:46.385Z,11.20
2018-12-07T08:19:13.843Z,11.30
2018-12-07T08:21:41.030Z,11.30
2018-12-07T08:24:08.310Z,11.30
2018-12-07T08:26:35.530Z,11.30
2018-12-07T08:29:02.791Z,11.30
2018-12-07T08:31:29.998Z,11.30
2018-12-07T08:33:57.495Z,11.40
2018-12-07T08:36:24.842Z,11.30
2018-12-07T08:38:52.147Z,11.30
2018-12-07T08:41:19.502Z,11.30
2018-12-07T08:43:47.825Z,11.40
2018-12-07T08:46:15.036Z,11.40
2018-12-07T08:48:42.235Z,11.30
2018-12-07T08:51:13.297Z,11.30
2018-12-07T08:53:40.558Z,11.30
2018-12-07T08:56:08.828Z,11.40
2018-12-07T08:58:35.997Z,11.40
2018-12-07T09:01:04.269Z,11.40
2018-12-07T09:03:31.478Z,11.40
2018-12-07T09:05:58.798Z,11.40
2018-12-07T09:08:25.979Z,11.30
2018-12-07T09:10:53.766Z,11.40
2018-12-07T09:13:21.090Z,11.40
2018-12-07T09:15:48.392Z,11.40
2018-12-07T09:18:15.715Z,11.40
2018-12-07T09:20:42.989Z,11.40
2018-12-07T09:23:10.219Z,11.40
2018-12-07T09:25:38.519Z,11.40
2018-12-07T09:28:05.736Z,11.40
2018-12-07T09:30:33.018Z,11.40
2018-12-07T09:33:00.211Z,11.40
2018-12-07T09:35:31.498Z,11.40
2018-12-07T09:37:58.739Z,11.40
2018-12-07T09:40:26.033Z,11.50
2018-12-07T09:42:53.249Z,11.50
2018-12-07T09:45:20.540Z,11.50
2018-12-07T09:47:47.971Z,11.50
2018-12-07T09:50:15.200Z,11.50
2018-12-07T09:52:52.915Z,11.50
2018-12-07T09:55:20.131Z,11.50
2018-12-07T09:57:51.338Z,11.50
2018-12-07T10:00:18.532Z,11.50
2018-12-07T10:02:45.831Z,11.50
2018-12-07T10:05:13.081Z,11.60
2018-12-07T10:07:40.329Z,11.60
2018-12-07T10:10:07.537Z,11.60
2018-12-07T10:12:36.880Z,11.60
2018-12-07T10:15:04.511Z,11.60
2018-12-07T10:17:31.818Z,11.60
2018-12-07T10:19:59.031Z,11.60
2018-12-07T10:22:26.314Z,11.60
2018-12-07T10:24:53.489Z,11.60
2018-12-07T10:27:28.249Z,11.60
2018-12-07T10:29:55.429Z,11.60
2018-12-07T10:32:22.651Z,11.60
2018-12-07T10:34:49.898Z,11.50
2018-12-07T10:37:17.147Z,11.60
2018-12-07T10:39:44.337Z,11.50
2018-12-07T10:42:11.619Z,11.60
2018-12-07T10:44:38.859Z,11.60
2018-12-07T10:47:06.094Z,11.50
2018-12-07T10:49:33.342Z,11.60
2018-12-07T10:52:00.510Z,11.60
2018-12-07T10:54:29.312Z,11.50
2018-12-07T10:56:56.771Z,11.50
2018-12-07T10:59:24.088Z,11.50
2018-12-07T11:01:57.052Z,11.50
2018-12-07T11:04:30.079Z,11.50
2018-12-07T11:07:02.891Z,11.50
2018-12-07T11:12:36.650Z,11.60
2018-12-07T11:15:09.858Z,11.60
2018-12-07T11:17:42.724Z,11.60
2018-12-07T11:20:15.704Z,11.60
2018-12-07T11:22:48.810Z,11.60
2018-12-07T11:25:21.736Z,11.60
2018-12-07T11:28:01.414Z,11.60
2018-12-07T11:30:30.657Z,11.50
2018-12-07T11:33:03.571Z,11.60
2018-12-07T11:35:37.216Z,11.60
2018-12-07T11:38:04.449Z,11.60
2018-12-07T11:40:31.743Z,11.70
2018-12-07T11:42:58.971Z,11.70
2018-12-07T11:45:29.788Z,11.70
2018-12-07T11:47:56.986Z,11.70
2018-12-07T11:50:25.226Z,11.60
2018-12-07T11:52:52.435Z,11.70
2018-12-07T11:55:27.691Z,11.60
2018-12-07T11:57:54.859Z,11.60
2018-12-07T12:00:22.253Z,11.60
2018-12-07T12:02:49.461Z,11.60
2018-12-07T12:05:16.745Z,11.60
2018-12-07T12:07:43.907Z,11.60
2018-12-07T12:10:11.288Z,11.60
2018-12-07T12:12:38.471Z,11.60
2018-12-07T12:15:06.366Z,11.60
2018-12-07T12:17:33.554Z,11.50
2018-12-07T12:20:00.829Z,11.50
2018-12-07T12:22:28.019Z,11.50
2018-12-07T12:24:55.275Z,11.50
2018-12-07T12:27:22.500Z,11.50
2018-12-07T12:29:49.767Z,11.50
2018-12-07T12:32:16.999Z,11.50
2018-12-07T12:34:44.433Z,11.50
2018-12-07T12:37:11.600Z,11.50
2018-12-07T12:39:38.896Z,11.50
2018-12-07T12:42:06.221Z,11.50
2018-12-07T12:44:35.446Z,11.50
2018-12-07T12:47:02.653Z,11.40
2018-12-07T12:49:31.135Z,11.50
2018-12-07T12:51:58.321Z,11.50
2018-12-07T12:54:25.583Z,11.40
2018-12-07T12:56:53.001Z,11.50
2018-12-07T12:59:20.270Z,11.50
2018-12-07T13:01:47.475Z,11.50
2018-12-07T13:04:18.823Z,11.50
2018-12-07T13:06:46.065Z,11.60
2018-12-07T13:09:14.318Z,11.60
2018-12-07T13:11:41.595Z,11.60
2018-12-07T13:14:08.779Z,11.60
2018-12-07T13:16:36.074Z,11.60
2018-12-07T13:19:03.261Z,11.70
2018-12-07T13:21:30.484Z,11.70
2018-12-07T13:23:57.712Z,11.70
2018-12-07T13:26:26.100Z,11.70
2018-12-07T13:28:53.319Z,11.80
2018-12-07T13:31:20.650Z,11.80
2018-12-07T13:33:47.888Z,11.80
2018-12-07T13:36:15.355Z,11.80
2018-12-07T13:38:42.630Z,11.80
2018-12-07T13:41:10.208Z,11.80
2018-12-07T13:43:37.587Z,11.90
2018-12-07T13:46:05.248Z,11.90
2018-12-07T13:48:32.535Z,11.90
2018-12-07T13:51:00.374Z,11.90
2018-12-07T13:53:28.423Z,11.90
2018-12-07T13:55:56.739Z,11.90
2018-12-07T13:58:27.124Z,11.90
2018-12-07T14:00:56.602Z,11.90
2018-12-07T14:03:25.168Z,11.90
2018-12-07T14:05:54.502Z,12.00
2018-12-07T14:08:22.679Z,12.00
2018-12-07T14:10:50.023Z,12.00
2018-12-07T14:13:17.308Z,12.00
2018-12-07T14:15:44.830Z,12.00
2018-12-07T14:18:12.240Z,12.10
2018-12-07T14:20:39.571Z,12.00
2018-12-07T14:23:07.022Z,12.00
2018-12-07T14:25:34.435Z,11.90
2018-12-07T14:28:01.881Z,11.90
2018-12-07T14:30:29.279Z,11.90
2018-12-07T14:32:56.617Z,12.00
2018-12-07T14:35:24.239Z,12.00
2018-12-07T14:37:51.800Z,12.10
2018-12-07T14:40:19.158Z,12.10
2018-12-07T14:42:46.559Z,12.10
2018-12-07T14:45:13.888Z,12.10
2018-12-07T14:47:41.435Z,12.00
2018-12-07T14:50:08.917Z,12.00
2018-12-07T14:52:36.271Z,12.00
2018-12-07T14:55:04.021Z,12.00
2018-12-07T14:57:31.549Z,12.00
2018-12-07T14:59:58.864Z,12.00
2018-12-07T15:02:26.106Z,12.00
2018-12-07T15:04:53.447Z,12.00
2018-12-07T15:07:21.090Z,11.90
2018-12-07T15:09:48.750Z,12.00
2018-12-07T15:12:16.189Z,12.00
2018-12-07T15:14:43.651Z,12.00
2018-12-07T15:17:11.275Z,12.00
2018-12-07T15:19:38.666Z,12.00
2018-12-07T15:22:07.175Z,11.90
2018-12-07T15:24:34.640Z,11.90
2018-12-07T15:27:02.990Z,11.90
2018-12-07T15:29:30.155Z,11.90
2018-12-07T15:31:57.353Z,11.90
2018-12-07T15:34:24.842Z,11.90
2018-12-07T15:36:52.185Z,11.90
2018-12-07T15:39:29.204Z,11.90
2018-12-07T15:41:58.634Z,11.90
2018-12-07T15:44:33.547Z,11.80
2018-12-07T15:47:01.204Z,11.70
2018-12-07T15:49:28.519Z,11.60
2018-12-07T15:51:55.972Z,11.60
2018-12-07T15:54:23.364Z,11.50
2018-12-07T15:56:50.789Z,11.50
2018-12-07T15:59:19.411Z,11.40
2018-12-07T16:01:46.599Z,11.40
2018-12-07T16:04:13.884Z,11.30
2018-12-07T16:06:41.284Z,11.20
2018-12-07T16:09:08.731Z,11.10
2018-12-07T16:11:36.337Z,11.00
2018-12-07T16:14:03.728Z,10.90
2018-12-07T16:16:31.176Z,10.90
2018-12-07T16:18:58.478Z,10.80
2018-12-07T16:21:25.800Z,10.80
2018-12-07T16:23:53.127Z,10.80
2018-12-07T16:26:20.390Z,10.80
2018-12-07T16:28:47.906Z,10.80
2018-12-07T16:31:15.426Z,10.80
2018-12-07T16:33:42.751Z,10.70
2018-12-07T16:36:10.098Z,10.70
2018-12-07T16:38:37.625Z,10.70
2018-12-07T16:41:05.282Z,10.70
2018-12-07T16:43:32.555Z,10.80
2018-12-07T16:46:00.823Z,10.80
2018-12-07T16:48:28.094Z,10.80
2018-12-07T16:50:55.329Z,10.90
2018-12-07T16:53:22.644Z,10.90
2018-12-07T16:55:50.925Z,11.00
2018-12-07T16:58:18.423Z,11.00
2018-12-07T17:00:45.936Z,11.10
2018-12-07T17:03:13.488Z,11.20
2018-12-07T17:05:42.175Z,11.20
2018-12-07T17:08:09.431Z,11.30
2018-12-07T17:10:40.433Z,11.40
2018-12-07T17:13:07.829Z,11.40
2018-12-07T17:15:35.253Z,11.40
2018-12-07T17:18:02.848Z,11.50
2018-12-07T17:20:30.324Z,11.40
2018-12-07T17:22:57.655Z,11.30
2018-12-07T17:25:24.972Z,11.30
2018-12-07T17:27:52.430Z,11.30
2018-12-07T17:30:19.871Z,11.20
2018-12-07T17:32:54.866Z,11.10
2018-12-07T17:35:22.174Z,11.20
2018-12-07T17:37:50.865Z,11.20
2018-12-07T17:40:18.329Z,11.10
2018-12-07T17:42:45.884Z,11.00
2018-12-07T17:45:13.336Z,11.00
2018-12-07T17:47:42.815Z,10.90
2018-12-07T17:50:10.321Z,10.90
2018-12-07T17:52:37.710Z,10.90
2018-12-07T17:55:05.005Z,10.90
2018-12-07T17:57:32.378Z,10.80
2018-12-07T17:59:59.717Z,10.60
2018-12-07T18:02:27.033Z,10.60
2018-12-07T18:04:54.298Z,10.60
2018-12-07T18:07:22.953Z,10.60
2018-12-07T18:09:50.455Z,10.60
2018-12-07T18:12:17.742Z,10.60
2018-12-07T18:14:44.996Z,10.50
2018-12-07T18:17:12.229Z,10.50
2018-12-07T18:19:39.579Z,10.50
2018-12-07T18:22:07.033Z,10.50
2018-12-07T18:24:34.521Z,10.50
2018-12-07T18:27:02.322Z,10.50
2018-12-07T18:29:29.843Z,10.50
2018-12-07T18:31:57.086Z,10.50
2018-12-07T18:34:28.647Z,10.40
2018-12-07T18:36:56.289Z,10.40
2018-12-07T18:39:23.698Z,10.40
2018-12-07T18:41:51.081Z,10.40
2018-12-07T18:44:18.690Z,10.50
2018-12-07T18:46:46.158Z,10.50
2018-12-07T18:49:13.599Z,10.50
2018-12-07T18:51:41.118Z,10.50
2018-12-07T18:54:08.731Z,10.50
2018-12-07T18:56:36.269Z,10.50
2018-12-07T18:59:04.690Z,10.50
2018-12-07T19:01:31.981Z,10.50
2018-12-07T19:04:02.910Z,10.60
2018-12-07T19:06:30.318Z,10.50
2018-12-07T19:08:58.774Z,10.50
2018-12-07T19:11:26.312Z,10.50
2018-12-07T19:13:53.728Z,10.50
2018-12-07T19:16:22.123Z,10.40
2018-12-07T19:18:49.600Z,10.40
2018-12-07T19:21:17.194Z,10.40
2018-12-07T19:23:45.013Z,10.40
2018-12-07T19:26:12.481Z,10.40
2018-12-07T19:28:39.966Z,10.20
2018-12-07T19:31:08.660Z,10.00
2018-12-07T19:33:36.064Z,9.70
2018-12-07T19:36:03.695Z,9.40
2018-12-07T19:38:31.217Z,9.30
2018-12-07T19:40:58.718Z,9.10
2018-12-07T19:43:26.191Z,9.00
2018-12-07T19:45:54.198Z,8.90
2018-12-07T19:48:21.643Z,8.80
2018-12-07T19:50:49.032Z,8.70
2018-12-07T19:53:16.552Z,8.60
2018-12-07T19:55:44.064Z,8.60
2018-12-07T19:58:11.434Z,8.50
2018-12-07T20:00:38.881Z,8.50
2018-12-07T20:03:06.751Z,8.40
2018-12-07T20:05:37.760Z,8.30
2018-12-07T20:08:05.365Z,8.30
2018-12-07T20:10:34.785Z,8.30
2018-12-07T20:13:02.483Z,8.30
2018-12-07T20:15:29.695Z,8.20
2018-12-07T20:18:00.547Z,8.20
2018-12-07T20:20:28.433Z,8.10
2018-12-07T20:22:56.123Z,8.10
2018-12-07T20:25:23.833Z,8.00
2018-12-07T20:27:51.399Z,8.00
2018-12-07T20:30:19.113Z,8.00
2018-12-07T20:32:46.456Z,8.00
2018-12-07T20:35:13.785Z,7.90
2018-12-07T20:37:41.214Z,7.90
2018-12-07T20:40:08.848Z,7.80
2018-12-07T20:42:36.174Z,7.80
2018-12-07T20:45:03.402Z,7.80
2018-12-07T20:47:31.884Z,7.80
2018-12-07T20:50:00.706Z,7.80
2018-12-07T20:52:28.954Z,7.80
2018-12-07T20:54:56.593Z,7.80
2018-12-07T20:57:24.303Z,7.80
2018-12-07T20:59:51.511Z,7.80
2018-12-07T21:02:25.005Z,7.80
2018-12-07T21:04:54.269Z,7.80
2018-12-07T21:07:34.777Z,7.70
2018-12-07T21:13:43.027Z,7.70
2018-12-07T21:16:26.115Z,7.80
2018-12-07T21:18:53.509Z,7.70
2018-12-07T21:21:28.177Z,7.70
2018-12-07T21:23:50.233Z,7.60
2018-12-07T21:26:21.195Z,7.60
2018-12-07T21:28:46.995Z,7.50
2018-12-07T21:31:14.802Z,7.60
2018-12-07T21:33:42.266Z,7.50
2018-12-07T21:36:31.170Z,7.50
2018-12-07T21:38:58.760Z,7.50
2018-12-07T21:41:26.281Z,7.50
2018-12-07T21:43:53.778Z,7.40
2018-12-07T21:46:21.212Z,7.40
2018-12-07T21:48:48.499Z,7.40
2018-12-07T21:51:17.579Z,7.40
2018-12-07T21:53:45.208Z,7.50
2018-12-07T21:56:12.843Z,7.50
2018-12-07T21:58:40.328Z,7.50
2018-12-07T22:01:07.869Z,7.40
2018-12-07T22:03:35.419Z,7.40
2018-12-07T22:06:03.015Z,7.40
2018-12-07T22:08:30.324Z,7.40
2018-12-07T22:10:57.969Z,7.40
2018-12-07T22:13:25.350Z,7.40
2018-12-07T22:15:55.680Z,7.40
2018-12-07T22:18:23.131Z,7.40
2018-12-07T22:20:50.590Z,7.40
2018-12-07T22:23:18.076Z,7.40
2018-12-07T22:25:46.502Z,7.50
2018-12-07T22:28:14.161Z,7.40
2018-12-07T22:30:45.657Z,7.40
2018-12-07T22:33:13.199Z,7.40
2018-12-07T22:35:45.403Z,7.40
2018-12-07T22:38:12.890Z,7.40
2018-12-07T22:40:57.039Z,7.30
2018-12-07T22:43:26.110Z,7.30
2018-12-07T22:45:53.701Z,7.30
2018-12-07T22:48:21.361Z,7.30
2018-12-07T22:50:55.054Z,7.30
2018-12-07T22:53:22.241Z,7.20
2018-12-07T22:55:49.584Z,7.20
2018-12-07T22:58:16.736Z,7.20
2018-12-07T23:00:50.935Z,7.20
2018-12-07T23:03:18.141Z,7.20
2018-12-07T23:05:49.206Z,7.20
2018-12-07T23:08:16.397Z,7.20
2018-12-07T23:10:43.609Z,7.20
2018-12-07T23:13:15.742Z,7.20
2018-12-07T23:15:42.934Z,7.20
2018-12-07T23:18:10.170Z,7.10
2018-12-07T23:20:37.359Z,7.20
2018-12-07T23:23:15.182Z,7.20
2018-12-07T23:25:42.388Z,7.10
2018-12-07T23:28:09.683Z,7.20
2018-12-07T23:30:36.891Z,7.20
2018-12-07T23:33:04.154Z,7.20
2018-12-07T23:35:31.579Z,7.20
2018-12-07T23:37:58.841Z,7.20
2018-12-07T23:40:26.137Z,7.20
2018-12-07T23:42:56.376Z,7.20
2018-12-07T23:45:23.550Z,7.10
2018-12-07T23:47:54.447Z,7.10
2018-12-07T23:50:21.621Z,7.10
2018-12-07T23:52:52.427Z,7.00
2018-12-07T23:55:19.603Z,7.00
2018-12-07T23:57:50.396Z,7.00
